CW9197 Juva FI current weather conditions

sailwx.info

Wind from 303 at 1 knots gusting 6

Last reported at 2017-Mar-27 23:55 UTC.
Time now 2017-Mar-28 00:43 UTC

Location: N 61°53' E 027°53'.
View on Google Maps.

See reports from other nearby stations

  
Tides and Currents Weather Stations Pressure Air Temp Water Temp Dewpoint Dewpoint Depression Visibility Wind Speed Wind Dir Waves Ship Positions
date/time (UTC)wind fromknots sea level pressurealtimeterstation pressurevisibilityair tempwater tempwave heightnotes
2017-Mar-27 23:55 303 1 gusting 6
2017-Mar-27 23:45 314 2 gusting 7
2017-Mar-27 23:35 298 2 gusting 6
2017-Mar-27 23:25 318 1 gusting 7
2017-Mar-27 23:15 300 1 gusting 4
2017-Mar-27 23:05 317 2 gusting 9
2017-Mar-27 22:55 308 2 gusting 6
2017-Mar-27 22:45 324 1 gusting 6
2017-Mar-27 22:35 327 2 gusting 7
2017-Mar-27 22:25 336 2 gusting 7
2017-Mar-27 22:15 329 5 gusting 13
2017-Mar-27 22:05 339 3 gusting 12
2017-Mar-27 21:55 338 3 gusting 11
2017-Mar-27 21:45 349 2 gusting 10
2017-Mar-27 21:35 352 4 gusting 11
2017-Mar-27 21:25 348 4 gusting 10
2017-Mar-27 21:15 353 4 gusting 11
2017-Mar-27 21:05 346 4 gusting 15
2017-Mar-27 20:55 339 3 gusting 9
2017-Mar-27 20:45 348 6 gusting 13
2017-Mar-27 20:35 355 4 gusting 10
2017-Mar-27 20:25 349 2 gusting 7
2017-Mar-27 20:15 352 3 gusting 9
2017-Mar-27 20:05 347 3 gusting 8
2017-Mar-27 19:55 004 3 gusting 9
2017-Mar-27 19:45 001 2 gusting 13
2017-Mar-27 19:35 006 3 gusting 12
2017-Mar-27 19:25 011 5 gusting 13
2017-Mar-27 19:15 015 4 gusting 10
2017-Mar-27 19:05 025 5 gusting 12
2017-Mar-27 18:55 034 4 gusting 12
2017-Mar-27 18:45 038 6 gusting 13
2017-Mar-27 18:35 018 8 gusting 18
2017-Mar-27 18:25 011 9 gusting 24
2017-Mar-27 18:15 328 9 gusting 19
2017-Mar-27 18:05 330 8 gusting 20
2017-Mar-27 17:55 321 12 gusting 26
2017-Mar-27 17:45 307 7 gusting 19
2017-Mar-27 17:35 304 6 gusting 16
2017-Mar-27 17:25 282 6 gusting 15
2017-Mar-27 17:15 279 5 gusting 12
2017-Mar-27 17:05 254 3 gusting 12
2017-Mar-27 16:55 245 1 gusting 6
2017-Mar-27 16:45 215
2017-Mar-27 16:35 222 0 gusting 2
2017-Mar-27 16:25 231 1 gusting 2
2017-Mar-27 16:15 222 0 gusting 2
2017-Mar-27 16:05 240 1 gusting 3
2017-Mar-27 15:55 233 2 gusting 5
2017-Mar-27 15:45 249 1 gusting 3
2017-Mar-27 15:35 233 0 gusting 4
2017-Mar-27 15:25 262 2 gusting 9
2017-Mar-27 15:15 265 1 gusting 5
2017-Mar-27 15:05 217 2 gusting 3
2017-Mar-27 14:55 219 3 gusting 5
2017-Mar-27 14:45 224 1 gusting 3
2017-Mar-27 14:35 219 1 gusting 4
2017-Mar-27 14:25 229 1 gusting 3
2017-Mar-27 14:15 219 2 gusting 5
2017-Mar-27 14:05 210 2 gusting 5
2017-Mar-27 13:55 216 3 gusting 5
2017-Mar-27 13:45 215 2 gusting 4
2017-Mar-27 13:35 217 5 gusting 7
2017-Mar-27 13:25 224 4 gusting 6
2017-Mar-27 13:15 224 5 gusting 9
2017-Mar-27 13:05 220 7 gusting 13
2017-Mar-27 12:55 217 5 gusting 10
2017-Mar-27 12:45 230 3 gusting 8
2017-Mar-27 12:35 225 3 gusting 6
2017-Mar-27 12:25 226 5 gusting 9
2017-Mar-27 12:15 232 4 gusting 8
2017-Mar-27 12:05 222 5 gusting 9
2017-Mar-27 11:55 228 3 gusting 6
2017-Mar-27 11:45 234 4 gusting 10
2017-Mar-27 11:35 239 3 gusting 6
2017-Mar-27 11:25 233 3 gusting 6
2017-Mar-27 11:15 240 1 gusting 4
2017-Mar-27 11:05 255 4 gusting 9
2017-Mar-27 10:55 249 1 gusting 5
2017-Mar-27 10:45 240 2 gusting 9
2017-Mar-27 10:35 247 3 gusting 8
2017-Mar-27 10:25 242 2 gusting 7
2017-Mar-27 10:15 248 2 gusting 8
2017-Mar-27 10:05 248 5 gusting 13
2017-Mar-27 09:55 254 3 gusting 8
2017-Mar-27 09:45 250 3 gusting 8
2017-Mar-27 09:35 258 5 gusting 12
2017-Mar-27 09:25 270 4 gusting 12
2017-Mar-27 09:15 271 5 gusting 12
2017-Mar-27 09:05 271 4 gusting 11
2017-Mar-27 08:55 254 3 gusting 8
2017-Mar-27 08:45 271 3 gusting 10
2017-Mar-27 08:35 257 3 gusting 6
2017-Mar-27 08:25 256 2 gusting 6
2017-Mar-27 08:15 262 3 gusting 10
2017-Mar-27 08:05 280 3 gusting 11
2017-Mar-27 07:55 280 3 gusting 8
2017-Mar-27 07:45 313 2 gusting 6
2017-Mar-27 07:35 272 4 gusting 13
2017-Mar-27 07:25 262 3 gusting 6
2017-Mar-27 07:15 304 1 gusting 6
2017-Mar-27 07:05 313 4 gusting 10
2017-Mar-27 06:55 320 5 gusting 14
2017-Mar-27 06:45 298 3 gusting 9
2017-Mar-27 06:35 328 6 gusting 19
2017-Mar-27 06:25 323 1 gusting 7
2017-Mar-27 06:15 317 3 gusting 11
2017-Mar-27 06:05 320 4 gusting 10
2017-Mar-27 05:55 312 4 gusting 12
2017-Mar-27 05:45 305 4 gusting 12
2017-Mar-27 05:35 312 6 gusting 15
2017-Mar-27 05:25 303 3 gusting 9
2017-Mar-27 05:15 303 5 gusting 14
2017-Mar-27 05:05 315 4 gusting 14
2017-Mar-27 04:55 309 6 gusting 13
2017-Mar-27 04:45 305 3 gusting 12
2017-Mar-27 04:35 307 4 gusting 13
2017-Mar-27 04:25 308 5 gusting 14
2017-Mar-27 04:15 304 6 gusting 15
2017-Mar-27 04:05 321 5 gusting 12
2017-Mar-27 03:55 330 3 gusting 9
2017-Mar-27 03:45 322 3 gusting 12
2017-Mar-27 03:35 303 6 gusting 13
2017-Mar-27 03:25 311 6 gusting 16
2017-Mar-27 03:15 317 5 gusting 13
2017-Mar-27 03:05 312 4 gusting 11
2017-Mar-27 02:55 326 5 gusting 13
2017-Mar-27 02:45 317 6 gusting 15
2017-Mar-27 02:35 297 4 gusting 12
2017-Mar-27 02:25 312 5 gusting 12
2017-Mar-27 02:15 321 5 gusting 14
2017-Mar-27 02:05 305 5 gusting 11
2017-Mar-27 01:55 311 6 gusting 14
2017-Mar-27 01:45 299 3 gusting 12
2017-Mar-27 01:35 315 6 gusting 15
2017-Mar-27 01:25 308 6 gusting 13
2017-Mar-27 01:15 313 6 gusting 15
2017-Mar-27 01:05 298 3 gusting 15
2017-Mar-27 00:55 308 6 gusting 14
2017-Mar-27 00:45 319 6 gusting 14
2017-Mar-27 00:35 310 6 gusting 16
2017-Mar-27 00:25 327 6 gusting 15
2017-Mar-27 00:15 316 5 gusting 17
2017-Mar-27 00:05 323 6 gusting 16
2017-Mar-26 23:55 322 6 gusting 14
2017-Mar-26 23:45 321 5 gusting 14
2017-Mar-26 23:35 326 6 gusting 15
2017-Mar-26 23:25 326 6 gusting 19
2017-Mar-26 23:15 320 6 gusting 12
2017-Mar-26 23:05 306 5 gusting 14
2017-Mar-26 22:55 313 7 gusting 16
2017-Mar-26 22:45 321 6 gusting 16
2017-Mar-26 22:35 297 6 gusting 19
2017-Mar-26 22:25 314 6 gusting 16
2017-Mar-26 22:15 318 6 gusting 15
2017-Mar-26 22:05 307 6 gusting 12
2017-Mar-26 21:55 329 4 gusting 11
2017-Mar-26 21:45 316 5 gusting 13
2017-Mar-26 21:35 306 5 gusting 16
2017-Mar-26 21:25 308 5 gusting 12
2017-Mar-26 21:15 314 6 gusting 16
2017-Mar-26 21:05 316 6 gusting 16
2017-Mar-26 20:55 310 5 gusting 15
2017-Mar-26 20:45 319 6 gusting 16
2017-Mar-26 20:35 327 6 gusting 18
2017-Mar-26 20:25 297 6 gusting 14
2017-Mar-26 20:15 321 6 gusting 16
2017-Mar-26 20:05 321 5 gusting 13
2017-Mar-26 19:55 314 6 gusting 19
2017-Mar-26 19:45 321 6 gusting 18
2017-Mar-26 19:35 309 6 gusting 13
2017-Mar-26 19:25 321 5 gusting 14
2017-Mar-26 19:15 319 7 gusting 19
2017-Mar-26 19:05 317 6 gusting 15
2017-Mar-26 18:55 323 8 gusting 18
2017-Mar-26 18:45 326 7 gusting 19
2017-Mar-26 18:35 321 7 gusting 20
2017-Mar-26 18:25 323 7 gusting 20
2017-Mar-26 18:15 317 7 gusting 17
2017-Mar-26 18:05 317 8 gusting 30
2017-Mar-26 17:55 317 5 gusting 12
2017-Mar-26 17:45 303 6 gusting 13
2017-Mar-26 17:35 314 6 gusting 16
2017-Mar-26 17:25 308 6 gusting 15
2017-Mar-26 17:15 314 7 gusting 19
2017-Mar-26 17:05 306 6 gusting 16
2017-Mar-26 16:55 307 7 gusting 18
2017-Mar-26 16:45 313 6 gusting 18
2017-Mar-26 16:35 311 8 gusting 19
2017-Mar-26 16:25 302 7 gusting 22
2017-Mar-26 16:15 310 5 gusting 11
2017-Mar-26 16:05 320 6 gusting 14
2017-Mar-26 15:55 320 8 gusting 19
2017-Mar-26 15:45 321 11 gusting 24
2017-Mar-26 15:35 315 10 gusting 22
2017-Mar-26 15:25 331 8 gusting 24
2017-Mar-26 15:15 294 6 gusting 18
2017-Mar-26 15:05 294 5 gusting 17
2017-Mar-26 14:55 283 5 gusting 12
2017-Mar-26 14:45 300 8 gusting 18
2017-Mar-26 14:35 292 8 gusting 19
2017-Mar-26 14:25 297 5 gusting 15
2017-Mar-26 14:15 252 3 gusting 8
2017-Mar-26 14:05 240 1 gusting 5
2017-Mar-26 13:55 239 4 gusting 11
2017-Mar-26 13:45 237 3 gusting 7
2017-Mar-26 13:35 231 3 gusting 7
2017-Mar-26 13:25 232 4 gusting 8
2017-Mar-26 13:15 236 3 gusting 6
2017-Mar-26 13:05 237 3 gusting 6
2017-Mar-26 12:55 236 3 gusting 6
2017-Mar-26 12:45 230 3 gusting 6
2017-Mar-26 12:35 235 3 gusting 8
2017-Mar-26 12:25 234 2 gusting 6
2017-Mar-26 12:15 225 4 gusting 9
2017-Mar-26 12:05 230 3 gusting 5
2017-Mar-26 11:55 225 4 gusting 9
2017-Mar-26 11:45 227 3 gusting 6
2017-Mar-26 11:35 230 3 gusting 6
2017-Mar-26 11:25 228 5 gusting 10
2017-Mar-26 11:15 227 6 gusting 13
2017-Mar-26 11:05 227 5 gusting 9
2017-Mar-26 10:55 226 5 gusting 8
2017-Mar-26 10:45 231 5 gusting 11
2017-Mar-26 10:35 228 6 gusting 11
2017-Mar-26 10:25 229 4 gusting 8
2017-Mar-26 10:15 226 5 gusting 9
2017-Mar-26 10:05 229 5 gusting 10
2017-Mar-26 09:55 229 4 gusting 6
2017-Mar-26 09:45 222 6 gusting 9
2017-Mar-26 09:35 219 6 gusting 9
2017-Mar-26 09:25 226 4 gusting 7
2017-Mar-26 09:15 229 5 gusting 9
2017-Mar-26 09:05 221 6 gusting 10
2017-Mar-26 08:55 229 6 gusting 9
2017-Mar-26 08:45 229 6 gusting 9
2017-Mar-26 08:35 228 6 gusting 11
2017-Mar-26 08:25 226 6 gusting 9
2017-Mar-26 08:15 221 6 gusting 11
2017-Mar-26 08:05 227 6 gusting 10
2017-Mar-26 07:55 225 7 gusting 13
2017-Mar-26 07:45 229 6 gusting 12
2017-Mar-26 07:35 221 8 gusting 14
2017-Mar-26 07:25 221 7 gusting 11
2017-Mar-26 07:15 219 7 gusting 11
2017-Mar-26 07:05 218 7 gusting 12
2017-Mar-26 06:55 217 6 gusting 12
2017-Mar-26 06:45 222 6 gusting 11
2017-Mar-26 06:35 218 6 gusting 10
2017-Mar-26 06:25 223 6 gusting 9
2017-Mar-26 06:15 223 6 gusting 10
2017-Mar-26 06:05 221 5 gusting 7
2017-Mar-26 05:55 224 5 gusting 8
2017-Mar-26 05:45 220 6 gusting 8
2017-Mar-26 05:35 223 5 gusting 10
2017-Mar-26 05:25 224 5 gusting 8
2017-Mar-26 05:15 224 5 gusting 9
2017-Mar-26 05:05 230 4 gusting 7
2017-Mar-26 04:55 222 4 gusting 8
2017-Mar-26 04:45 221 5 gusting 7
2017-Mar-26 04:35 229 3 gusting 6
2017-Mar-26 04:25 224 3 gusting 6
2017-Mar-26 04:15 221 4 gusting 6
2017-Mar-26 04:05 221 3 gusting 5
2017-Mar-26 03:55 219 4 gusting 6
2017-Mar-26 03:45 220 3 gusting 6
2017-Mar-26 03:35 225 4 gusting 7
2017-Mar-26 03:25 222 3 gusting 6
2017-Mar-26 03:15 223 2 gusting 3
2017-Mar-26 03:05 221 1 gusting 2
2017-Mar-26 02:55 218 1 gusting 2
2017-Mar-26 02:45 222 1 gusting 2
2017-Mar-26 02:35 221 0 gusting 1
2017-Mar-26 02:25 232 0 gusting 1
2017-Mar-26 02:15 218 0 gusting 1
2017-Mar-26 02:05 208 0 gusting 1
2017-Mar-26 01:55 207 0 gusting 1
2017-Mar-26 01:45 203
2017-Mar-26 01:35 222
2017-Mar-26 01:25 225 0 gusting 3
2017-Mar-26 01:15 228 0 gusting 1
2017-Mar-26 01:05 217 0 gusting 1
2017-Mar-26 00:55 233
2017-Mar-26 00:45 225 0 gusting 2
2017-Mar-26 00:35 229 0 gusting 1
2017-Mar-26 00:25 221 0 gusting 1
2017-Mar-26 00:15 209 0 gusting 1
2017-Mar-26 00:05 224 0 gusting 1